Time;durP1;ratioP1;P1;durP2;ratioP2;P2;SDS_P1;SDS_P2;PMS_P1;PMS_P2;Temp;Humidity;BMP_temperature;BMP_pressure;BME280_temperature;BME280_humidity;BME280_pressure;Samples;Min_cycle;Max_cycle;Signal;HPM_P1;HPM_P2
2022/05/21 00:00:45;;;;;;;14.90;9.55;;;11.60;99.90;;;;;;4869854;29;20099;-84
2022/05/21 00:03:11;;;;;;;16.42;10.80;;;11.60;99.90;;;;;;4901084;29;20096;-81
2022/05/21 00:05:38;;;;;;;17.23;11.15;;;11.60;99.90;;;;;;4900817;29;20036;-84
2022/05/21 00:08:08;;;;;;;18.00;11.32;;;11.50;99.90;;;;;;4877023;29;20041;-85
2022/05/21 00:10:35;;;;;;;19.63;12.52;;;11.60;99.90;;;;;;4867597;29;20393;-85
2022/05/21 00:13:01;;;;;;;18.05;11.60;;;11.60;99.90;;;;;;4875281;29;20056;-84
2022/05/21 00:15:29;;;;;;;18.13;12.10;;;11.60;99.90;;;;;;4881898;29;20048;-84
2022/05/21 00:17:55;;;;;;;20.95;13.10;;;11.60;99.90;;;;;;4874273;29;20501;-84
2022/05/21 00:23:26;;;;;;;21.27;14.23;;;11.60;99.90;;;;;;4876044;29;20131;-84
2022/05/21 00:26:04;;;;;;;23.73;15.30;;;11.60;99.90;;;;;;4882440;29;20052;-82
2022/05/21 00:28:31;;;;;;;26.08;15.75;;;11.60;99.90;;;;;;4866415;29;20118;-84
2022/05/21 00:30:57;;;;;;;26.30;18.02;;;11.60;99.90;;;;;;4881813;29;20049;-85
2022/05/21 00:33:25;;;;;;;28.80;18.67;;;11.60;99.90;;;;;;4866655;29;20041;-84
2022/05/21 00:35:51;;;;;;;32.42;19.35;;;11.60;99.90;;;;;;4851122;29;20176;-84
2022/05/21 00:38:17;;;;;;;30.75;19.27;;;11.60;99.90;;;;;;4887143;29;20077;-84
2022/05/21 00:40:44;;;;;;;27.48;18.92;;;11.60;99.90;;;;;;4899294;29;20041;-84
2022/05/21 00:43:40;;;;;;;31.92;20.70;;;11.60;99.90;;;;;;4886359;29;20140;-84
2022/05/21 00:46:09;;;;;;;30.50;20.42;;;11.70;99.90;;;;;;4893447;29;20119;-84
2022/05/21 00:48:37;;;;;;;35.85;20.50;;;11.60;99.90;;;;;;4877495;29;20523;-84
2022/05/21 00:51:04;;;;;;;34.53;20.75;;;11.70;99.90;;;;;;4893403;29;20053;-84
2022/05/21 00:53:30;;;;;;;35.92;21.42;;;12.20;99.90;;;;;;4913738;29;20051;-84
2022/05/21 00:55:57;;;;;;;29.15;20.08;;;11.60;99.90;;;;;;4873466;29;20044;-84
2022/05/21 01:01:12;;;;;;;26.83;19.65;;;11.70;99.90;;;;;;4879521;29;20055;-84
2022/05/21 01:03:38;;;;;;;34.05;20.10;;;11.70;99.90;;;;;;4885663;29;20366;-84
2022/05/21 01:06:05;;;;;;;30.90;20.35;;;11.70;99.90;;;;;;4854120;29;20101;-85
2022/05/21 01:08:31;;;;;;;29.85;21.15;;;11.80;99.90;;;;;;4854849;29;20075;-84
2022/05/21 01:11:02;;;;;;;32.35;20.88;;;11.80;99.90;;;;;;4895140;29;20041;-84
2022/05/21 01:13:33;;;;;;;29.20;20.17;;;11.80;99.90;;;;;;4881942;29;20059;-81
2022/05/21 01:15:59;;;;;;;29.52;19.65;;;11.70;99.90;;;;;;4869988;29;20040;-85
2022/05/21 01:18:25;;;;;;;32.80;20.15;;;11.90;99.90;;;;;;4869865;29;20040;-84
2022/05/21 01:20:57;;;;;;;33.53;20.27;;;11.90;99.90;;;;;;4884911;29;20506;-84
2022/05/21 01:23:24;;;;;;;28.40;20.40;;;11.90;99.90;;;;;;4884978;29;20033;-84
2022/05/21 01:25:50;;;;;;;33.42;20.88;;;11.80;99.90;;;;;;4869957;29;20068;-84
2022/05/21 01:28:21;;;;;;;28.77;20.25;;;11.90;99.90;;;;;;4869981;29;20489;-84
2022/05/21 01:30:50;;;;;;;33.92;21.38;;;11.90;99.90;;;;;;4864378;29;20037;-85
2022/05/21 01:33:18;;;;;;;32.58;21.83;;;11.90;99.90;;;;;;4866737;29;20059;-84
2022/05/21 01:35:45;;;;;;;34.67;20.77;;;12.00;99.90;;;;;;4871871;29;20076;-85
2022/05/21 01:38:13;;;;;;;34.88;20.83;;;11.90;99.90;;;;;;4854247;29;20041;-84
2022/05/21 01:40:39;;;;;;;31.55;22.05;;;12.00;99.90;;;;;;4891009;29;20118;-84
2022/05/21 01:45:52;;;;;;;31.75;23.27;;;12.00;99.90;;;;;;4919425;29;20054;-84
2022/05/21 01:48:23;;;;;;;30.67;23.70;;;12.00;99.90;;;;;;4904137;29;20456;-85
2022/05/21 01:50:50;;;;;;;33.58;23.90;;;12.00;99.90;;;;;;4902665;29;20048;-85
2022/05/21 01:53:16;;;;;;;31.25;23.25;;;12.00;99.90;;;;;;4903396;29;20047;-84
2022/05/21 01:55:44;;;;;;;29.45;23.10;;;12.20;99.90;;;;;;4903703;29;20122;-83
2022/05/21 01:58:10;;;;;;;32.83;23.35;;;12.10;99.90;;;;;;4887788;29;20096;-84
2022/05/21 02:00:36;;;;;;;30.75;23.95;;;12.10;99.90;;;;;;4887711;29;20044;-84
2022/05/21 02:03:02;;;;;;;34.97;24.27;;;12.10;99.90;;;;;;4888336;29;20465;-84
2022/05/21 02:05:28;;;;;;;35.65;24.83;;;12.10;99.90;;;;;;4887858;29;20036;-85
2022/05/21 02:07:53;;;;;;;32.13;23.70;;;12.10;99.90;;;;;;4872910;29;20175;-84
2022/05/21 02:10:19;;;;;;;28.88;24.30;;;12.20;99.90;;;;;;4887503;29;20489;-85
2022/05/21 02:12:45;;;;;;;33.80;23.75;;;12.20;99.90;;;;;;4888025;29;20509;-84
2022/05/21 02:15:11;;;;;;;33.97;24.17;;;12.20;99.90;;;;;;4898178;29;20108;-85
2022/05/21 02:17:37;;;;;;;30.73;23.40;;;12.20;99.90;;;;;;4862300;29;20048;-85
2022/05/21 02:20:04;;;;;;;31.05;24.10;;;12.70;99.90;;;;;;4901827;29;20377;-83
2022/05/21 02:22:30;;;;;;;29.52;22.95;;;12.20;99.90;;;;;;4903712;29;20127;-84
2022/05/21 02:24:55;;;;;;;34.75;24.10;;;12.30;99.90;;;;;;4892745;29;20059;-83
2022/05/21 02:27:21;;;;;;;33.42;23.58;;;12.30;99.90;;;;;;4902794;29;20060;-84
2022/05/21 02:29:47;;;;;;;38.47;24.05;;;12.30;99.90;;;;;;4893234;29;20056;-84
2022/05/21 02:32:14;;;;;;;31.88;22.15;;;12.30;99.90;;;;;;4902084;29;20122;-84
2022/05/21 02:34:42;;;;;;;33.55;23.65;;;12.30;99.90;;;;;;4902322;29;20035;-84
2022/05/21 02:39:53;;;;;;;33.80;22.67;;;12.40;99.90;;;;;;4904007;29;20428;-84
2022/05/21 02:45:04;;;;;;;37.95;20.58;;;12.40;99.90;;;;;;4857886;29;20053;-84
2022/05/21 02:47:31;;;;;;;32.42;20.45;;;12.40;99.90;;;;;;4884037;29;20445;-84
2022/05/21 02:49:57;;;;;;;31.25;19.55;;;12.40;99.90;;;;;;4883821;29;20044;-84
2022/05/21 02:52:23;;;;;;;26.60;18.10;;;12.40;99.90;;;;;;4868405;29;20100;-84
2022/05/21 02:54:48;;;;;;;31.85;17.73;;;12.50;99.90;;;;;;4868087;29;20135;-84
2022/05/21 02:57:15;;;;;;;33.00;17.50;;;12.50;99.90;;;;;;4883561;29;20136;-84
2022/05/21 02:59:41;;;;;;;28.85;16.13;;;12.50;99.90;;;;;;4852469;29;20047;-84
2022/05/21 03:02:08;;;;;;;29.38;16.27;;;12.50;99.90;;;;;;4867950;29;20052;-84
2022/05/21 03:04:35;;;;;;;28.75;13.50;;;12.60;99.90;;;;;;4883672;29;20052;-84
2022/05/21 03:07:01;;;;;;;27.92;14.13;;;12.60;99.90;;;;;;4883630;29;20493;-84
2022/05/21 03:12:16;;;;;;;21.00;11.68;;;12.60;99.90;;;;;;4844236;29;20386;-84
2022/05/21 03:14:42;;;;;;;23.13;11.73;;;12.60;99.90;;;;;;4837753;29;20051;-84
2022/05/21 03:17:07;;;;;;;28.90;10.98;;;12.60;99.90;;;;;;4868008;29;20044;-84
2022/05/21 03:19:34;;;;;;;24.38;10.00;;;12.70;99.90;;;;;;4867569;29;20051;-84
2022/05/21 03:22:01;;;;;;;28.13;10.48;;;12.70;99.90;;;;;;4882986;29;20044;-83
2022/05/21 03:24:28;;;;;;;24.23;9.25;;;12.70;99.90;;;;;;4852508;29;20040;-84
2022/05/21 03:26:53;;;;;;;23.48;9.07;;;12.70;99.90;;;;;;4898862;29;20040;-83
2022/05/21 03:29:20;;;;;;;25.10;8.43;;;12.70;99.90;;;;;;4868163;29;20041;-83
2022/05/21 03:31:46;;;;;;;21.52;8.05;;;12.80;99.90;;;;;;4881623;29;20080;-83
2022/05/21 03:34:12;;;;;;;20.45;7.88;;;12.70;99.90;;;;;;4883636;29;20123;-84
2022/05/21 03:36:38;;;;;;;20.33;7.13;;;12.80;99.90;;;;;;4868936;29;20040;-83
2022/05/21 03:39:05;;;;;;;22.30;6.53;;;12.80;99.90;;;;;;4882551;29;20037;-84
2022/05/21 03:41:31;;;;;;;16.13;6.20;;;12.80;99.90;;;;;;4856139;29;20053;-84
2022/05/21 03:43:57;;;;;;;18.55;6.32;;;12.80;99.90;;;;;;4867495;29;20404;-84
2022/05/21 03:46:23;;;;;;;14.50;5.68;;;12.90;99.90;;;;;;4882988;29;20051;-84
2022/05/21 03:48:50;;;;;;;19.27;7.10;;;12.90;99.90;;;;;;4864328;29;20450;-84
2022/05/21 03:51:16;;;;;;;25.50;6.50;;;12.90;99.90;;;;;;4828571;29;20065;-84
2022/05/21 03:53:42;;;;;;;18.52;5.90;;;12.90;99.90;;;;;;4865860;29;20143;-84
2022/05/21 03:56:08;;;;;;;23.05;6.95;;;12.90;99.90;;;;;;4882788;29;20123;-84
2022/05/21 03:58:34;;;;;;;24.00;6.43;;;13.00;99.90;;;;;;4867374;29;20044;-84
2022/05/21 04:01:00;;;;;;;28.25;6.55;;;12.90;99.90;;;;;;4856471;29;20045;-84
2022/05/21 04:03:26;;;;;;;17.60;5.50;;;13.00;99.90;;;;;;4833959;29;20045;-84
2022/05/21 04:05:58;;;;;;;23.40;5.95;;;13.00;99.90;;;;;;4859157;29;20199;-84
2022/05/21 04:08:24;;;;;;;15.88;4.75;;;13.10;99.90;;;;;;4883250;29;20055;-84
2022/05/21 04:10:51;;;;;;;18.60;4.38;;;13.00;99.90;;;;;;4882327;29;20497;-84
2022/05/21 04:13:17;;;;;;;20.75;4.28;;;13.10;99.90;;;;;;4883900;29;20132;-84
2022/05/21 04:15:44;;;;;;;15.55;4.05;;;13.10;99.90;;;;;;4852512;29;20048;-84
2022/05/21 04:18:10;;;;;;;15.02;3.63;;;13.20;99.90;;;;;;4868130;29;20092;-85
2022/05/21 04:20:36;;;;;;;15.73;3.30;;;13.20;99.90;;;;;;4866204;29;20037;-84
2022/05/21 04:23:02;;;;;;;14.38;3.63;;;13.30;99.90;;;;;;4867315;29;20078;-84
2022/05/21 04:25:28;;;;;;;14.82;3.22;;;13.30;99.90;;;;;;4851919;29;20056;-85
2022/05/21 04:27:53;;;;;;;17.30;3.67;;;13.30;99.90;;;;;;4837717;29;20045;-84
2022/05/21 04:30:26;;;;;;;16.75;3.33;;;13.40;99.90;;;;;;4843939;29;20078;-85
2022/05/21 04:32:53;;;;;;;15.10;3.92;;;13.40;99.90;;;;;;4882552;29;20052;-85
2022/05/21 04:35:20;;;;;;;16.00;2.65;;;13.40;99.90;;;;;;4882877;29;20497;-85
2022/05/21 04:37:46;;;;;;;14.45;3.20;;;13.40;99.90;;;;;;4867844;29;20119;-85
2022/05/21 04:40:16;;;;;;;14.05;3.20;;;13.50;99.90;;;;;;4867179;29;20037;-85
2022/05/21 04:42:42;;;;;;;15.52;3.58;;;13.50;99.90;;;;;;4874666;29;20063;-84
2022/05/21 04:45:08;;;;;;;14.43;2.95;;;13.50;99.90;;;;;;4901502;29;20044;-85
2022/05/21 04:47:34;;;;;;;15.27;3.78;;;13.50;99.90;;;;;;4901287;29;20058;-85
2022/05/21 04:50:00;;;;;;;14.90;3.17;;;13.50;99.90;;;;;;4901929;29;20382;-85
2022/05/21 04:52:26;;;;;;;14.63;3.15;;;13.50;99.90;;;;;;4900268;29;20135;-85
2022/05/21 04:54:52;;;;;;;13.48;3.25;;;13.50;99.90;;;;;;4916973;29;20055;-84
2022/05/21 04:57:17;;;;;;;17.95;3.47;;;13.50;99.90;;;;;;4887133;29;20046;-85
2022/05/21 04:59:43;;;;;;;14.65;2.70;;;13.50;99.90;;;;;;4867766;29;20088;-85
2022/05/21 05:02:09;;;;;;;14.43;3.28;;;13.50;99.90;;;;;;4868355;29;20045;-85
2022/05/21 05:04:35;;;;;;;14.38;2.90;;;13.50;99.90;;;;;;4886675;29;20175;-85
2022/05/21 05:07:06;;;;;;;13.80;3.30;;;13.60;99.90;;;;;;4886561;29;20517;-85
2022/05/21 05:09:38;;;;;;;18.58;3.03;;;13.60;99.90;;;;;;4902641;29;20405;-85
2022/05/21 05:12:04;;;;;;;15.98;3.05;;;13.60;99.90;;;;;;4900976;29;20170;-85
2022/05/21 05:14:30;;;;;;;16.23;4.35;;;13.60;99.90;;;;;;4885909;29;20067;-85
2022/05/21 05:16:56;;;;;;;11.45;2.90;;;13.60;99.90;;;;;;4901553;29;20044;-85
2022/05/21 05:19:21;;;;;;;17.83;3.17;;;13.70;99.90;;;;;;4901345;29;20484;-84
2022/05/21 05:21:47;;;;;;;8.40;2.53;;;13.60;99.90;;;;;;4885422;29;20510;-85
2022/05/21 05:24:13;;;;;;;15.77;3.33;;;13.70;99.90;;;;;;4872179;29;20096;-86
2022/05/21 05:26:38;;;;;;;14.25;2.67;;;13.70;99.90;;;;;;4851886;29;20044;-85
2022/05/21 05:29:05;;;;;;;14.05;2.75;;;13.70;99.90;;;;;;4837549;29;20067;-85
2022/05/21 05:31:31;;;;;;;14.40;2.97;;;13.80;99.90;;;;;;4839386;29;20127;-85
2022/05/21 05:33:58;;;;;;;14.18;3.10;;;13.80;99.90;;;;;;4866738;29;20048;-85
2022/05/21 05:36:24;;;;;;;17.67;3.28;;;13.80;99.90;;;;;;4906523;29;20040;-85
2022/05/21 05:38:50;;;;;;;14.35;2.88;;;13.80;99.90;;;;;;4905488;29;20052;-85
2022/05/21 05:41:16;;;;;;;13.02;2.88;;;13.80;99.90;;;;;;4889774;29;20044;-85
2022/05/21 05:43:41;;;;;;;14.98;3.60;;;13.80;99.90;;;;;;4873474;29;20060;-85
2022/05/21 05:46:07;;;;;;;13.52;2.90;;;13.90;99.90;;;;;;4873367;29;20412;-85
2022/05/21 05:48:33;;;;;;;12.18;2.90;;;13.90;99.90;;;;;;4904674;29;20134;-85
2022/05/21 05:51:02;;;;;;;17.85;3.33;;;13.90;99.90;;;;;;4888665;29;20447;-85
2022/05/21 05:53:28;;;;;;;15.93;2.75;;;14.00;99.90;;;;;;4904893;29;20044;-86
2022/05/21 05:55:54;;;;;;;18.10;3.00;;;14.00;99.90;;;;;;4881187;29;20614;-86
2022/05/21 06:01:06;;;;;;;17.67;3.10;;;14.10;99.90;;;;;;4905231;29;20127;-85
2022/05/21 06:03:34;;;;;;;11.32;2.67;;;14.10;99.90;;;;;;4886055;29;20046;-84
2022/05/21 06:06:01;;;;;;;14.88;3.10;;;14.10;99.90;;;;;;4892932;29;20067;-85
2022/05/21 06:08:27;;;;;;;14.57;3.22;;;14.10;99.90;;;;;;4872808;29;20048;-85
2022/05/21 06:10:52;;;;;;;12.02;3.63;;;14.10;99.90;;;;;;4872665;29;20050;-85
2022/05/21 06:13:18;;;;;;;11.90;3.00;;;14.10;99.90;;;;;;4888325;29;20044;-85
2022/05/21 06:15:44;;;;;;;11.07;2.97;;;14.10;99.90;;;;;;4889662;29;20080;-86
2022/05/21 06:18:20;;;;;;;16.15;2.72;;;14.10;99.90;;;;;;4871808;29;20184;-86
2022/05/21 06:20:46;;;;;;;;;;;14.20;99.90;;;;;;4886633;29;20438;-86
2022/05/21 06:23:15;;;;;;;18.38;3.00;;;14.20;99.90;;;;;;4886101;29;19935;-81
2022/05/21 06:25:41;;;;;;;16.15;3.22;;;14.20;99.90;;;;;;4885896;29;20082;-88
2022/05/21 06:28:08;;;;;;;15.40;2.97;;;14.30;99.90;;;;;;4896158;29;20040;-86
2022/05/21 06:30:35;;;;;;;15.60;3.05;;;14.40;99.90;;;;;;4907199;29;20127;-87
2022/05/21 06:33:16;;;;;;;13.48;2.83;;;14.40;99.90;;;;;;4873341;29;20099;-86
2022/05/21 06:35:43;;;;;;;20.42;3.13;;;14.50;99.90;;;;;;4878690;29;20040;-86
2022/05/21 06:38:08;;;;;;;15.05;2.90;;;14.60;99.90;;;;;;4892727;29;20103;-86
2022/05/21 06:40:34;;;;;;;7.13;2.45;;;14.80;99.90;;;;;;4873209;29;20052;-86
2022/05/21 06:43:00;;;;;;;12.40;3.00;;;14.90;99.90;;;;;;4902262;29;20048;-87
2022/05/21 06:45:33;;;;;;;11.77;2.80;;;14.90;99.90;;;;;;4864892;29;20508;-86
2022/05/21 06:48:04;;;;;;;12.88;2.75;;;14.90;99.90;;;;;;4889460;29;20079;-87
2022/05/21 06:50:30;;;;;;;13.95;3.20;;;14.90;99.90;;;;;;4885846;29;20041;-87
2022/05/21 06:52:56;;;;;;;11.13;3.10;;;15.00;99.90;;;;;;4892788;29;20044;-87
2022/05/21 06:55:23;;;;;;;10.20;2.45;;;15.00;99.90;;;;;;4884154;29;20461;-86
2022/05/21 06:57:50;;;;;;;12.65;2.63;;;15.10;99.90;;;;;;4903750;29;20048;-86
2022/05/21 07:00:17;;;;;;;11.45;2.80;;;15.20;99.90;;;;;;4888256;29;20054;-86
2022/05/21 07:02:43;;;;;;;9.98;2.22;;;15.20;99.90;;;;;;4902380;29;20568;-84
2022/05/21 07:07:53;;;;;;;11.82;3.00;;;15.20;99.90;;;;;;4895455;29;20445;-84
2022/05/21 07:10:24;;;;;;;14.95;2.45;;;15.30;99.90;;;;;;4884661;29;20100;-83
2022/05/21 07:12:51;;;;;;;15.05;3.38;;;15.40;99.90;;;;;;4884931;29;20576;-87
2022/05/21 07:15:17;;;;;;;12.30;2.63;;;15.40;99.90;;;;;;4889417;29;20125;-86
2022/05/21 07:17:44;;;;;;;14.40;2.83;;;15.50;99.90;;;;;;4885232;29;20495;-86
2022/05/21 07:20:15;;;;;;;14.05;3.15;;;15.50;99.90;;;;;;4885214;29;20106;-87
2022/05/21 07:22:46;;;;;;;12.75;2.53;;;15.50;99.90;;;;;;4902275;29;20037;-88
2022/05/21 07:25:14;;;;;;;13.40;2.58;;;15.40;99.90;;;;;;4897155;29;20122;-87
2022/05/21 07:27:40;;;;;;;9.57;2.55;;;15.40;99.90;;;;;;4883058;29;20043;-87
2022/05/21 07:30:07;;;;;;;10.30;2.80;;;15.30;99.90;;;;;;4925870;29;20043;-86
2022/05/21 07:32:33;;;;;;;10.73;3.05;;;15.30;99.90;;;;;;4922748;29;20059;-86
2022/05/21 07:35:11;;;;;;;16.15;3.20;;;15.30;99.90;;;;;;4920756;29;20040;-87
2022/05/21 07:37:37;;;;;;;11.80;2.50;;;15.30;99.90;;;;;;4938529;29;20051;-87
2022/05/21 07:40:05;;;;;;;10.57;2.53;;;15.40;99.90;;;;;;4907044;29;20055;-87
2022/05/21 07:42:32;;;;;;;14.05;2.88;;;15.40;99.90;;;;;;4913810;29;20063;-86
2022/05/21 07:44:58;;;;;;;12.63;2.90;;;15.40;99.90;;;;;;4905252;29;20071;-87
2022/05/21 07:47:24;;;;;;;9.93;2.78;;;15.60;99.90;;;;;;4889958;29;20044;-86
2022/05/21 07:49:56;;;;;;;12.88;2.53;;;16.00;99.90;;;;;;4890375;29;20080;-89
2022/05/21 07:52:25;;;;;;;11.98;2.97;;;16.30;99.90;;;;;;4905770;29;20036;-88
2022/05/21 07:54:51;;;;;;;9.98;2.13;;;16.70;99.90;;;;;;4889423;29;20044;-88
2022/05/21 07:57:17;;;;;;;8.68;2.08;;;17.10;99.90;;;;;;4902299;29;20567;-88
2022/05/21 07:59:43;;;;;;;11.02;2.65;;;17.20;99.90;;;;;;4891666;29;20378;-86
2022/05/21 08:02:15;;;;;;;8.65;2.35;;;17.10;99.90;;;;;;4906342;29;20064;-87
2022/05/21 08:04:42;;;;;;;12.35;2.03;;;17.20;99.90;;;;;;4886207;29;20044;-86
2022/05/21 08:07:08;;;;;;;8.73;1.80;;;17.30;99.90;;;;;;4902630;29;20103;-87
2022/05/21 08:09:34;;;;;;;9.77;2.00;;;17.30;99.90;;;;;;4903521;29;20393;-86
2022/05/21 08:11:59;;;;;;;10.65;2.22;;;17.10;99.90;;;;;;4856927;29;20078;-86
2022/05/21 08:14:25;;;;;;;7.70;1.95;;;16.90;99.90;;;;;;4887053;29;20040;-87
2022/05/21 08:16:51;;;;;;;5.03;1.90;;;16.90;99.90;;;;;;4887739;29;20398;-87
2022/05/21 08:19:17;;;;;;;9.85;2.13;;;17.10;99.90;;;;;;4902625;29;20521;-87
2022/05/21 08:21:43;;;;;;;7.90;2.03;;;17.10;99.90;;;;;;4886104;29;20071;-86
2022/05/21 08:26:56;;;;;;;7.70;2.10;;;17.00;99.90;;;;;;4886828;29;20081;-87
2022/05/21 08:29:26;;;;;;;10.38;1.80;;;16.90;99.90;;;;;;4888427;29;20045;-86
2022/05/21 08:31:51;;;;;;;6.75;2.17;;;16.90;99.90;;;;;;4887699;29;20040;-85
2022/05/21 08:34:18;;;;;;;10.73;2.70;;;17.00;99.90;;;;;;4890060;29;20119;-87
2022/05/21 08:36:44;;;;;;;15.15;2.70;;;17.00;99.90;;;;;;4903830;29;20083;-86
2022/05/21 08:39:09;;;;;;;10.15;2.75;;;16.90;99.90;;;;;;4903182;29;20083;-86
2022/05/21 08:41:38;;;;;;;9.45;2.20;;;17.10;99.90;;;;;;4887795;29;20048;-86
2022/05/21 08:44:13;;;;;;;7.57;1.85;;;17.40;99.90;;;;;;4887217;29;20044;-87
2022/05/21 08:47:00;;;;;;;10.02;2.00;;;17.70;99.90;;;;;;4902265;29;20074;-86
2022/05/21 08:49:50;;;;;;;10.45;2.42;;;18.10;99.90;;;;;;4887723;29;20531;-88
2022/05/21 08:52:30;;;;;;;9.23;2.38;;;18.00;99.90;;;;;;4904121;29;20040;-87
2022/05/21 08:55:00;;;;;;;12.35;2.33;;;18.00;99.90;;;;;;4921200;29;20111;-87
2022/05/21 08:58:03;;;;;;;11.90;2.30;;;17.90;99.90;;;;;;4903186;29;20552;-87
2022/05/21 09:00:40;;;;;;;10.57;2.20;;;17.80;99.90;;;;;;4887380;29;20040;-88
2022/05/21 09:03:20;;;;;;;8.05;2.40;;;17.70;99.90;;;;;;4888569;29;20067;-87
2022/05/21 09:06:16;;;;;;;10.75;2.08;;;17.90;99.90;;;;;;4869109;29;20049;-87
2022/05/21 09:09:03;;;;;;;10.55;2.10;;;18.20;99.90;;;;;;4871900;29;20159;-86
2022/05/21 09:11:38;;;;;;;8.10;2.20;;;18.50;99.90;;;;;;4872026;29;20044;-86
2022/05/21 09:14:31;;;;;;;9.90;1.90;;;18.60;99.90;;;;;;4899863;29;20093;-87
2022/05/21 09:16:58;;;;;;;8.10;1.83;;;18.60;99.90;;;;;;4886446;29;20159;-87
2022/05/21 09:19:35;;;;;;;9.80;2.03;;;18.60;99.90;;;;;;4870890;29;20176;-88
2022/05/21 09:22:04;;;;;;;6.50;2.15;;;18.70;99.90;;;;;;4875713;29;20078;-87
2022/05/21 09:24:50;;;;;;;9.02;2.17;;;18.80;99.90;;;;;;4890824;29;20489;-87
2022/05/21 09:27:36;;;;;;;6.40;2.13;;;18.90;99.90;;;;;;4870922;29;20052;-87
2022/05/21 09:30:26;;;;;;;9.73;2.45;;;18.90;99.90;;;;;;4870981;29;20087;-87
2022/05/21 09:32:58;;;;;;;8.25;2.53;;;18.90;99.90;;;;;;4903980;29;20107;-87
2022/05/21 09:35:47;;;;;;;9.48;2.10;;;18.90;99.90;;;;;;4905194;29;20501;-88
2022/05/21 09:38:19;;;;;;;8.73;2.03;;;19.00;99.90;;;;;;4905386;29;20044;-89
2022/05/21 09:40:44;;;;;;;6.93;1.75;;;18.70;99.90;;;;;;4904755;29;20135;-87
2022/05/21 09:46:22;;;;;;;9.07;2.63;;;18.40;99.90;;;;;;4905036;29;20461;-87
2022/05/21 09:48:49;;;;;;;9.90;2.10;;;18.30;99.90;;;;;;4903968;29;20130;-86
2022/05/21 09:51:31;;;;;;;9.35;1.80;;;18.30;99.90;;;;;;4889968;29;20039;-87
2022/05/21 09:53:58;;;;;;;10.93;2.40;;;18.40;99.90;;;;;;4887005;29;20044;-88
2022/05/21 09:56:26;;;;;;;9.27;1.75;;;18.40;99.90;;;;;;4870573;29;20080;-89
2022/05/21 09:59:07;;;;;;;7.22;2.17;;;18.50;99.90;;;;;;4871119;29;20050;-86
2022/05/21 10:01:40;;;;;;;8.68;2.42;;;18.50;99.90;;;;;;4901470;29;20041;-87
2022/05/21 10:04:14;;;;;;;10.73;2.25;;;18.40;99.90;;;;;;4888875;29;20095;-87
2022/05/21 10:07:03;;;;;;;7.30;1.95;;;18.40;99.90;;;;;;4904434;29;20406;-87
2022/05/21 10:12:42;;;;;;;9.45;2.25;;;18.30;99.90;;;;;;4903791;29;20476;-88
2022/05/21 10:15:24;;;;;;;9.23;1.95;;;18.30;99.90;;;;;;4907242;29;20495;-86
2022/05/21 10:17:59;;;;;;;8.68;2.10;;;18.30;99.90;;;;;;4889235;29;20040;-87
2022/05/21 10:20:44;;;;;;;8.68;2.08;;;18.20;99.90;;;;;;4905474;29;20072;-87
2022/05/21 10:23:51;;;;;;;6.53;2.10;;;18.10;99.90;;;;;;4893903;29;20047;-85
2022/05/21 10:26:35;;;;;;;7.50;1.70;;;17.90;99.90;;;;;;4867541;29;20091;-87
2022/05/21 10:29:04;;;;;;;7.93;1.70;;;17.90;99.90;;;;;;4887783;29;20055;-85
2022/05/21 10:31:39;;;;;;;9.70;2.00;;;17.90;99.90;;;;;;4888171;29;20396;-86
2022/05/21 10:34:11;;;;;;;11.52;2.42;;;18.00;99.90;;;;;;4903771;29;20055;-86
2022/05/21 10:36:39;;;;;;;9.00;2.35;;;18.00;99.90;;;;;;4898887;29;20040;-85
2022/05/21 10:39:23;;;;;;;9.98;2.30;;;18.00;99.90;;;;;;4888865;29;20444;-87
2022/05/21 10:42:16;;;;;;;6.85;1.95;;;17.90;99.90;;;;;;4904202;29;20063;-86
2022/05/21 10:45:13;;;;;;;8.13;2.15;;;17.90;99.90;;;;;;4876908;29;20175;-86
2022/05/21 10:48:03;;;;;;;12.18;2.03;;;18.00;99.90;;;;;;4888508;29;20094;-86
2022/05/21 10:50:33;;;;;;;9.35;1.83;;;18.00;99.90;;;;;;4890065;29;20080;-88
2022/05/21 10:53:24;;;;;;;7.90;1.90;;;18.10;99.90;;;;;;4903670;29;20054;-86
2022/05/21 10:56:02;;;;;;;8.65;1.80;;;18.20;99.90;;;;;;4903101;29;20047;-89
2022/05/21 10:58:30;;;;;;;6.57;1.80;;;18.20;99.90;;;;;;4887549;29;20048;-87
2022/05/21 11:01:12;;;;;;;6.20;1.60;;;18.10;99.90;;;;;;4903135;29;20143;-87
2022/05/21 11:04:27;;;;;;;7.97;2.05;;;18.00;99.90;;;;;;4887545;29;20040;-87
2022/05/21 11:07:17;;;;;;;7.50;1.60;;;18.00;99.90;;;;;;4841311;29;20052;-89
2022/05/21 11:10:06;;;;;;;8.00;1.88;;;18.10;99.90;;;;;;4902964;29;20092;-86
2022/05/21 11:12:53;;;;;;;6.28;1.50;;;18.20;99.90;;;;;;4887312;29;20043;-85
2022/05/21 11:15:25;;;;;;;7.10;1.67;;;18.30;99.90;;;;;;4876358;29;20036;-85
2022/05/21 11:17:57;;;;;;;8.07;1.88;;;18.40;99.90;;;;;;4886994;29;20051;-86
2022/05/21 11:20:29;;;;;;;5.28;1.75;;;18.40;99.90;;;;;;4903268;29;20180;-85
2022/05/21 11:23:13;;;;;;;7.90;1.92;;;18.40;99.90;;;;;;4895045;29;20396;-85
2022/05/21 11:26:02;;;;;;;6.22;1.85;;;18.40;99.90;;;;;;4886430;29;20051;-85
2022/05/21 11:28:31;;;;;;;7.95;2.00;;;18.50;99.90;;;;;;4914699;29;20171;-85
2022/05/21 11:31:04;;;;;;;7.13;2.00;;;18.40;99.90;;;;;;4902169;29;20045;-86
2022/05/21 11:39:07;;;;;;;9.02;2.25;;;18.50;99.90;;;;;;4901569;29;20044;-86
2022/05/21 11:41:57;;;;;;;8.55;2.42;;;18.50;99.90;;;;;;4902864;29;20052;-86
2022/05/21 11:47:22;;;;;;;13.80;2.60;;;18.60;99.90;;;;;;4884887;29;20055;-86
2022/05/21 11:50:00;;;;;;;7.40;2.13;;;18.60;99.90;;;;;;4900312;29;20079;-87
2022/05/21 11:52:34;;;;;;;9.43;2.30;;;18.60;99.90;;;;;;4887421;29;20488;-87
2022/05/21 11:55:01;;;;;;;8.65;2.05;;;18.50;99.90;;;;;;4901612;29;20504;-87
2022/05/21 11:58:01;;;;;;;12.35;2.17;;;18.40;99.90;;;;;;4901427;29;20565;-87
2022/05/21 12:00:27;;;;;;;8.20;2.08;;;18.40;99.90;;;;;;4857301;29;20429;-87
2022/05/21 12:02:58;;;;;;;9.70;2.72;;;18.40;99.90;;;;;;4901403;29;20038;-87
2022/05/21 12:05:46;;;;;;;10.02;2.30;;;18.40;99.90;;;;;;4896958;29;20068;-86
2022/05/21 12:08:30;;;;;;;8.88;2.05;;;18.50;99.90;;;;;;4886257;29;20058;-87
2022/05/21 12:11:06;;;;;;;10.05;2.20;;;18.40;99.90;;;;;;4898960;29;20044;-87
2022/05/21 12:13:35;;;;;;;11.13;2.20;;;18.50;99.90;;;;;;4899725;29;20044;-87
2022/05/21 12:16:19;;;;;;;11.93;2.58;;;18.50;99.90;;;;;;4874445;29;20412;-86
2022/05/21 12:19:00;;;;;;;8.02;2.70;;;18.60;99.90;;;;;;4901612;29;20037;-86
2022/05/21 12:21:29;;;;;;;8.65;1.92;;;18.80;99.90;;;;;;4901758;29;20103;-84
2022/05/21 12:23:58;;;;;;;7.45;2.20;;;19.00;99.90;;;;;;4901548;29;20043;-85
2022/05/21 12:26:32;;;;;;;8.00;1.98;;;19.20;99.90;;;;;;4885967;29;20040;-85
2022/05/21 12:29:22;;;;;;;8.65;2.13;;;19.30;99.90;;;;;;4880014;29;20060;-86
2022/05/21 12:31:56;;;;;;;9.45;2.00;;;19.30;99.90;;;;;;4894797;29;20049;-85
2022/05/21 12:34:44;;;;;;;8.25;1.80;;;19.40;99.90;;;;;;4901597;29;20517;-86
2022/05/21 12:37:30;;;;;;;8.10;1.90;;;19.50;99.90;;;;;;4901337;29;20087;-87
2022/05/21 12:40:07;;;;;;;6.90;2.13;;;19.40;99.90;;;;;;4906023;29;20044;-87
2022/05/21 12:43:00;;;;;;;8.13;2.50;;;19.30;99.90;;;;;;4903467;29;20067;-86
2022/05/21 12:45:53;;;;;;;7.55;2.35;;;19.20;99.90;;;;;;4900429;29;20053;-86
2022/05/21 12:48:23;;;;;;;6.70;1.95;;;19.20;99.90;;;;;;4930129;29;20068;-87
2022/05/21 12:50:55;;;;;;;7.07;2.17;;;19.20;99.90;;;;;;4902031;29;20037;-87
2022/05/21 12:53:28;;;;;;;10.45;2.50;;;19.20;99.90;;;;;;4885657;29;20049;-87
2022/05/21 12:56:12;;;;;;;11.35;2.67;;;19.20;99.90;;;;;;4867776;29;20429;-86
2022/05/21 12:58:39;;;;;;;6.95;1.65;;;19.20;99.90;;;;;;4866939;29;20040;-86
2022/05/21 13:01:05;;;;;;;9.57;2.70;;;19.20;99.90;;;;;;4879010;29;20041;-86
2022/05/21 13:03:33;;;;;;;8.40;2.72;;;19.30;99.90;;;;;;4870276;29;20078;-87
2022/05/21 13:06:04;;;;;;;9.55;2.20;;;19.60;99.90;;;;;;4848658;29;20052;-86
2022/05/21 13:08:31;;;;;;;6.03;1.80;;;20.10;99.90;;;;;;4863474;29;20048;-88
2022/05/21 13:11:17;;;;;;;7.07;1.95;;;20.40;99.90;;;;;;4867879;29;20044;-87
2022/05/21 13:13:49;;;;;;;7.53;2.58;;;20.60;99.90;;;;;;4868175;29;20048;-87
2022/05/21 13:16:17;;;;;;;9.80;2.05;;;20.60;99.90;;;;;;4899489;29;20389;-88
2022/05/21 13:19:05;;;;;;;8.82;1.80;;;20.40;99.90;;;;;;4883839;29;20048;-87
2022/05/21 13:22:04;;;;;;;9.25;1.92;;;20.10;98.60;;;;;;4867060;29;20094;-88
2022/05/21 13:24:53;;;;;;;9.65;2.20;;;19.70;99.00;;;;;;4871337;29;20074;-89
2022/05/21 13:27:20;;;;;;;11.23;2.55;;;19.50;99.90;;;;;;4879153;29;20048;-88
2022/05/21 13:29:48;;;;;;;7.85;2.03;;;19.60;99.90;;;;;;4879332;29;20044;-87
2022/05/21 13:32:25;;;;;;;7.05;2.10;;;19.50;99.90;;;;;;4894927;29;20397;-86
2022/05/21 13:34:56;;;;;;;11.80;2.30;;;19.50;99.90;;;;;;4887876;29;20132;-88
2022/05/21 13:37:32;;;;;;;8.23;2.35;;;19.40;99.90;;;;;;4863416;29;20045;-89